Time;durP1;ratioP1;P1;durP2;ratioP2;P2;SDS_P1;SDS_P2;PMS_P1;PMS_P2;Temp;Humidity;BMP_temperature;BMP_pressure;BME280_temperature;BME280_humidity;BME280_pressure;Samples;Min_cycle;Max_cycle;Signal;HPM_P1;HPM_P2
2021/12/07 00:00:52;;;;;;;14.53;9.33;;;;;;;-14.20;68.83;101812.38;5114850;28;20047;-60
2021/12/07 00:03:17;;;;;;;12.82;8.98;;;;;;;-14.09;68.53;101828.75;5114713;28;20035;-63
2021/12/07 00:05:43;;;;;;;17.53;9.27;;;;;;;-14.16;68.00;101829.53;5114599;28;20046;-62
2021/12/07 00:08:09;;;;;;;11.85;9.02;;;;;;;-14.11;68.72;101842.38;5114759;28;20039;-60
2021/12/07 00:10:35;;;;;;;17.13;10.70;;;;;;;-14.03;68.53;101827.94;5114571;28;20027;-61
2021/12/07 00:13:01;;;;;;;20.40;11.27;;;;;;;-14.13;68.55;101815.91;5114674;28;20038;-65
2021/12/07 00:15:29;;;;;;;12.77;9.67;;;;;;;-14.09;69.42;101820.22;5114452;28;20031;-62
2021/12/07 00:17:55;;;;;;;16.23;10.57;;;;;;;-14.05;68.06;101827.06;5114369;28;20055;-63
2021/12/07 00:20:23;;;;;;;11.70;9.37;;;;;;;-14.18;68.38;101831.19;5114328;28;20036;-60
2021/12/07 00:22:51;;;;;;;15.05;9.13;;;;;;;-14.15;68.11;101825.25;5114454;28;20088;-61
2021/12/07 00:25:17;;;;;;;14.63;9.23;;;;;;;-14.18;69.69;101826.06;5114106;28;20486;-58
2021/12/07 00:27:43;;;;;;;16.35;8.88;;;;;;;-14.29;68.97;101812.28;5096064;28;20028;-60
2021/12/07 00:30:10;;;;;;;9.83;8.83;;;;;;;-14.28;69.06;101801.22;5114460;28;20040;-62
2021/12/07 00:32:41;;;;;;;12.23;8.63;;;;;;;-14.04;68.51;101822.81;5114330;28;20127;-62
2021/12/07 00:37:38;;;;;;;15.95;9.32;;;;;;;-14.37;68.41;101767.84;5115036;28;20035;-62
2021/12/07 00:40:07;;;;;;;14.55;9.13;;;;;;;-14.07;68.88;101822.78;5115078;28;20525;-62
2021/12/07 00:42:33;;;;;;;;;;;;;;;-14.00;69.08;101822.88;5114947;28;20123;-59
2021/12/07 00:44:59;;;;;;;11.30;8.07;;;;;;;-14.04;68.55;101808.31;5113934;28;19951;-61
2021/12/07 00:47:25;;;;;;;15.68;8.93;;;;;;;-14.06;68.55;101804.03;5114236;28;20089;-63
2021/12/07 00:49:51;;;;;;;13.07;9.15;;;;;;;-14.11;68.27;101792.03;5114093;28;20477;-61
2021/12/07 00:52:17;;;;;;;10.13;8.60;;;;;;;-14.17;68.33;101771.47;5114193;28;20034;-60
2021/12/07 00:54:42;;;;;;;20.33;11.17;;;;;;;-14.29;67.71;101778.16;5114347;28;20031;-62
2021/12/07 00:57:08;;;;;;;16.97;11.00;;;;;;;-14.26;68.90;101778.19;5114554;28;20072;-63
2021/12/07 00:59:34;;;;;;;16.23;10.13;;;;;;;-14.34;69.69;101782.38;5114363;28;20079;-65
2021/12/07 01:01:59;;;;;;;11.63;8.47;;;;;;;-14.28;68.69;101783.31;5114070;28;20035;-62
2021/12/07 01:04:27;;;;;;;14.13;8.27;;;;;;;-14.14;69.03;101781.78;5113793;28;20039;-63
2021/12/07 01:25:55;;;;;;;12.30;9.35;;;;;;;-13.94;68.45;101733.31;5112983;28;20047;-59
2021/12/07 01:28:28;;;;;;;18.10;9.77;;;;;;;-13.83;68.06;101747.09;5112372;28;20064;-59
2021/12/07 01:31:00;;;;;;;12.13;9.50;;;;;;;-14.06;68.67;101734.91;5113133;28;20055;-62
2021/12/07 01:44:29;;;;;;;10.38;8.60;;;;;;;-14.28;69.20;101734.69;5112952;28;20031;-60
2021/12/07 01:46:53;;;;;;;13.30;9.73;;;;;;;-14.90;69.22;101627.47;5112089;28;20490;-62
2021/12/07 01:52:25;;;;;;;11.27;8.70;;;;;;;-14.42;69.29;101726.00;5112752;28;20082;-60
2021/12/07 02:00:23;;;;;;;18.58;9.30;;;;;;;-14.06;69.62;101725.53;5112832;28;20027;-60
2021/12/07 02:02:48;;;;;;;12.88;9.57;;;;;;;-14.04;68.80;101707.63;5112615;28;20059;-62
2021/12/07 02:05:14;;;;;;;14.37;8.93;;;;;;;-13.98;68.57;101697.44;5112393;28;20134;-60
2021/12/07 02:07:40;;;;;;;13.75;9.52;;;;;;;-14.03;68.60;101691.44;5112366;28;20034;-63
2021/12/07 02:10:13;;;;;;;9.20;7.37;;;;;;;-13.92;68.75;101715.41;5112536;28;20035;-62
2021/12/07 02:12:44;;;;;;;13.90;9.23;;;;;;;-14.02;68.72;101718.75;5112813;28;20066;-63
2021/12/07 02:15:13;;;;;;;15.55;9.95;;;;;;;-14.21;69.32;101712.56;5113153;28;20031;-60
2021/12/07 02:17:40;;;;;;;13.82;9.93;;;;;;;-14.27;69.81;101718.47;5112949;28;20039;-66
2021/12/07 02:20:08;;;;;;;12.20;9.40;;;;;;;-14.38;70.02;101709.84;5112920;28;20543;-62
2021/12/07 02:22:34;;;;;;;13.15;8.98;;;;;;;-14.26;70.17;101721.91;5112907;28;20126;-61
2021/12/07 02:25:00;;;;;;;13.05;9.13;;;;;;;-14.15;70.55;101708.41;5112983;28;20034;-63
2021/12/07 02:27:26;;;;;;;16.00;9.47;;;;;;;-14.06;69.74;101694.81;5112572;28;20031;-63
2021/12/07 02:29:51;;;;;;;13.23;9.38;;;;;;;-13.94;69.74;101704.28;5112278;28;20482;-64
2021/12/07 02:32:17;;;;;;;11.77;9.03;;;;;;;-14.09;69.88;101677.72;5112306;28;20032;-61
2021/12/07 02:34:53;;;;;;;13.17;9.83;;;;;;;-14.03;69.81;101686.31;5112122;28;20032;-61
2021/12/07 02:37:23;;;;;;;15.90;9.93;;;;;;;-14.09;70.49;101687.97;5112369;28;20126;-59
2021/12/07 02:39:48;;;;;;;13.90;8.93;;;;;;;-14.06;70.30;101697.38;5113912;28;20031;-61
2021/12/07 02:42:15;;;;;;;11.50;8.27;;;;;;;-14.11;70.10;101664.06;5116129;28;20047;-62
2021/12/07 02:44:40;;;;;;;14.20;9.38;;;;;;;-13.82;69.29;101691.63;5116217;28;20268;-60
2021/12/07 02:47:06;;;;;;;12.63;8.80;;;;;;;-14.12;70.10;101634.19;5116152;28;20402;-62
2021/12/07 02:49:32;;;;;;;13.03;8.97;;;;;;;-14.13;69.55;101627.38;5116031;28;20398;-64
2021/12/07 02:51:58;;;;;;;11.90;10.00;;;;;;;-13.85;69.96;101676.25;5116473;28;20527;-61
2021/12/07 02:54:23;;;;;;;12.35;10.38;;;;;;;-13.85;69.64;101681.34;5115697;28;20039;-63
2021/12/07 02:56:51;;;;;;;19.10;10.23;;;;;;;-13.93;69.72;101662.50;5116986;28;20036;-61
2021/12/07 02:59:29;;;;;;;14.85;9.15;;;;;;;-13.80;69.82;101664.31;5115968;28;20379;-62
2021/12/07 03:02:01;;;;;;;19.00;9.88;;;;;;;-13.73;69.07;101665.22;5116272;28;20028;-64
2021/12/07 03:04:36;;;;;;;13.02;9.30;;;;;;;-13.61;69.26;101675.53;5116664;28;20130;-61
2021/12/07 03:26:08;;;;;;;14.10;9.15;;;;;;;-13.65;68.56;101668.69;5115885;28;20114;-62
2021/12/07 03:28:40;;;;;;;9.25;8.25;;;;;;;-13.86;69.61;101647.22;5115611;28;20043;-62
2021/12/07 03:31:06;;;;;;;14.98;9.35;;;;;;;-13.85;69.53;101671.97;5115308;28;20027;-61
2021/12/07 03:33:33;;;;;;;10.30;8.43;;;;;;;-13.91;69.54;101663.34;5115484;28;20035;-62
2021/12/07 03:36:00;;;;;;;13.40;8.63;;;;;;;-13.81;69.97;101668.59;5115516;28;20032;-60
2021/12/07 03:38:26;;;;;;;16.48;11.07;;;;;;;-13.85;69.91;101645.50;5115119;28;20142;-64
2021/12/07 03:40:52;;;;;;;11.90;8.45;;;;;;;-13.82;69.22;101653.22;5115030;28;20036;-61
2021/12/07 03:43:18;;;;;;;12.75;10.05;;;;;;;-13.72;69.08;101644.75;5114923;28;20394;-63
2021/12/07 03:45:44;;;;;;;11.27;9.20;;;;;;;-13.66;68.83;101629.41;5114989;28;20153;-61
2021/12/07 03:48:10;;;;;;;15.50;11.50;;;;;;;-13.60;68.35;101647.38;5115209;28;20038;-60
2021/12/07 03:50:36;;;;;;;14.63;9.93;;;;;;;-13.72;68.76;101662.66;5114537;28;20381;-64
2021/12/07 03:53:03;;;;;;;12.67;10.43;;;;;;;-13.83;68.95;101659.19;5115259;28;20028;-60
2021/12/07 03:55:29;;;;;;;12.60;9.73;;;;;;;-13.65;68.77;101664.41;5115352;28;20543;-60
2021/12/07 03:57:55;;;;;;;12.50;9.25;;;;;;;-13.66;69.07;101654.16;5114509;28;20043;-62
2021/12/07 04:00:24;;;;;;;14.90;10.00;;;;;;;-13.55;68.77;101650.00;5095163;28;20076;-61
2021/12/07 04:02:53;;;;;;;14.63;10.05;;;;;;;-13.60;68.96;101637.13;5114759;28;20067;-62
2021/12/07 04:05:20;;;;;;;15.33;10.33;;;;;;;-13.46;68.55;101640.66;5114646;28;20122;-64
2021/12/07 04:07:46;;;;;;;17.80;9.80;;;;;;;-13.60;68.77;101632.00;5114765;28;20269;-59
2021/12/07 04:10:15;;;;;;;12.77;8.38;;;;;;;-13.65;68.87;101632.81;5114973;28;20031;-63
2021/12/07 04:12:41;;;;;;;12.40;8.95;;;;;;;-13.66;69.26;101631.97;5114399;28;20080;-68
2021/12/07 04:15:10;;;;;;;14.50;9.93;;;;;;;-13.78;68.63;101594.34;5114431;28;20430;-66
2021/12/07 04:17:38;;;;;;;;;;;;;;;-13.62;68.74;101599.53;5114984;28;20032;-59
2021/12/07 04:20:10;;;;;;;13.93;10.55;;;;;;;-13.70;68.75;101594.38;5114808;28;19923;-60
2021/12/07 04:22:35;;;;;;;13.02;9.57;;;;;;;-13.54;69.18;101626.09;5114238;28;20039;-67
2021/12/07 04:25:02;;;;;;;11.53;10.13;;;;;;;-13.67;69.20;101604.66;5114221;28;20053;-63
2021/12/07 04:27:30;;;;;;;15.50;10.23;;;;;;;-13.68;69.96;101613.19;5095712;28;20037;-64
2021/12/07 04:29:56;;;;;;;14.57;10.57;;;;;;;-13.63;69.73;101601.25;5112760;28;20035;-65
2021/12/07 04:32:21;;;;;;;12.73;11.27;;;;;;;-13.66;69.98;101591.00;5114263;28;20081;-68
2021/12/07 04:34:47;;;;;;;17.07;9.80;;;;;;;-13.68;71.31;101596.97;5114003;28;20031;-76
2021/12/07 04:37:12;;;;;;;19.90;11.63;;;;;;;-13.79;71.66;101596.91;5113778;28;20343;-65
2021/12/07 04:39:38;;;;;;;16.57;11.67;;;;;;;-13.77;71.31;101590.94;5113678;28;20035;-64
2021/12/07 04:42:04;;;;;;;11.50;8.43;;;;;;;-13.56;70.93;101613.28;5095477;28;20429;-66
2021/12/07 04:44:31;;;;;;;14.32;11.02;;;;;;;-13.58;70.83;101604.72;5113922;28;20039;-66
2021/12/07 04:47:17;;;;;;;12.63;10.05;;;;;;;-13.50;71.45;101618.44;5113958;28;20072;-66
2021/12/07 04:50:04;;;;;;;15.77;9.50;;;;;;;-13.51;71.01;101598.78;5113756;28;20486;-64
2021/12/07 04:58:02;;;;;;;;;;;;;;;-13.20;70.03;101592.09;5084529;28;20545;-64
2021/12/07 05:00:29;;;;;;;15.30;9.90;;;;;;;-13.17;70.12;101586.94;5113389;28;19953;-67
2021/12/07 05:03:00;;;;;;;16.50;9.40;;;;;;;-13.21;70.55;101585.25;5094476;28;20040;-63
2021/12/07 05:05:32;;;;;;;15.30;10.90;;;;;;;-13.10;70.95;101595.50;5113371;28;20063;-64
2021/12/07 05:08:01;;;;;;;18.75;13.73;;;;;;;-13.22;70.29;101591.25;5113214;28;20059;-63
2021/12/07 05:10:31;;;;;;;;;;;;;;;-13.17;70.58;101593.81;5113712;28;20126;-65
2021/12/07 05:13:25;;;;;;;13.38;10.80;;;;;;;-13.26;70.91;101597.22;5113736;28;19915;-63
2021/12/07 05:18:39;;;;;;;21.60;12.40;;;;;;;-13.55;71.65;101581.69;5112944;28;20071;-64
2021/12/07 05:24:05;;;;;;;15.02;9.73;;;;;;;-13.28;70.50;101578.41;5113088;28;20408;-64
2021/12/07 05:40:19;;;;;;;13.00;9.15;;;;;;;-13.08;70.72;101575.00;5112905;28;20039;-66
2021/12/07 05:42:44;;;;;;;14.70;9.48;;;;;;;-13.11;70.00;101570.72;5094350;28;20035;-66
2021/12/07 05:45:37;;;;;;;15.63;9.90;;;;;;;-13.08;70.23;101578.44;5112554;28;20051;-67
2021/12/07 05:48:08;;;;;;;17.85;10.65;;;;;;;-13.11;70.98;101560.47;5076481;28;20043;-62
2021/12/07 05:50:43;;;;;;;16.98;9.35;;;;;;;-13.16;71.15;101562.16;5076094;28;20561;-67
2021/12/07 05:53:25;;;;;;;20.42;9.48;;;;;;;-13.06;71.14;101552.78;5074778;28;20089;-67
2021/12/07 05:56:21;;;;;;;13.55;7.60;;;;;;;-12.85;70.91;101575.94;5076633;28;20031;-69
2021/12/07 05:58:50;;;;;;;10.63;8.10;;;;;;;-12.98;69.61;101556.25;5110734;28;20043;-68
2021/12/07 06:01:31;;;;;;;12.68;9.50;;;;;;;-13.16;70.55;101524.56;5091824;28;20375;-69
2021/12/07 06:03:56;;;;;;;14.65;9.40;;;;;;;-12.85;70.47;101571.66;5109900;28;20122;-67
2021/12/07 06:06:27;;;;;;;13.18;8.27;;;;;;;-13.14;70.73;101545.09;5109854;28;20036;-68
2021/12/07 06:08:53;;;;;;;14.82;8.77;;;;;;;-13.03;70.92;101556.22;5111626;28;20029;-70
2021/12/07 06:11:21;;;;;;;18.27;10.17;;;;;;;-13.09;70.65;101556.22;5112096;28;20084;-69
2021/12/07 06:13:47;;;;;;;13.82;9.38;;;;;;;-13.11;70.73;101554.50;5111851;28;20066;-69
2021/12/07 06:16:17;;;;;;;12.73;9.57;;;;;;;-13.11;71.12;101545.09;5112301;28;20074;-66
2021/12/07 06:18:51;;;;;;;15.18;9.80;;;;;;;-13.03;70.73;101550.25;5111358;28;20051;-68
2021/12/07 06:21:21;;;;;;;14.68;10.05;;;;;;;-12.84;70.77;101560.56;5093718;28;20066;-66
2021/12/07 06:23:47;;;;;;;13.15;9.27;;;;;;;-12.79;70.79;101542.63;5093887;28;20043;-70
2021/12/07 06:26:15;;;;;;;15.20;11.07;;;;;;;-12.83;70.81;101546.88;5112346;28;20039;-66
2021/12/07 06:28:40;;;;;;;14.93;9.05;;;;;;;-12.91;71.12;101528.06;5111664;28;20035;-64
2021/12/07 06:31:08;;;;;;;11.83;8.90;;;;;;;-12.85;71.10;101546.03;5112064;28;20036;-65
2021/12/07 06:33:34;;;;;;;11.48;9.55;;;;;;;-12.86;70.83;101546.88;5094811;28;20035;-67
2021/12/07 06:36:03;;;;;;;20.80;10.13;;;;;;;-12.80;71.04;101540.03;5111900;28;20049;-67
2021/12/07 06:38:31;;;;;;;14.30;10.85;;;;;;;-12.85;69.91;101543.47;5093319;28;20130;-69
2021/12/07 06:40:58;;;;;;;17.77;10.00;;;;;;;-12.93;70.53;101552.00;5111552;28;20399;-69
2021/12/07 06:43:24;;;;;;;12.30;8.85;;;;;;;-13.10;70.29;101530.56;5111303;28;20036;-71
2021/12/07 06:46:18;;;;;;;17.13;9.20;;;;;;;-13.15;70.79;101533.13;5111902;28;20170;-69
2021/12/07 06:48:44;;;;;;;13.93;11.02;;;;;;;-13.08;70.45;101545.09;5111193;28;20040;-66
2021/12/07 06:51:12;;;;;;;14.07;9.97;;;;;;;-13.02;70.59;101557.94;5093370;28;20475;-66
2021/12/07 06:53:39;;;;;;;13.55;10.05;;;;;;;-13.08;70.13;101547.66;5111569;28;20031;-68
2021/12/07 06:56:09;;;;;;;13.88;9.25;;;;;;;-13.18;70.34;101538.28;5111332;28;20426;-69
2021/12/07 06:58:41;;;;;;;28.33;11.80;;;;;;;-13.13;70.81;101557.06;5093161;28;20046;-67
2021/12/07 07:01:11;;;;;;;17.70;9.75;;;;;;;-12.97;70.89;101553.69;5111368;28;20083;-70
2021/12/07 07:03:38;;;;;;;13.90;9.00;;;;;;;-13.09;70.38;101534.84;5111709;28;20031;-67
2021/12/07 07:06:04;;;;;;;14.55;9.82;;;;;;;-12.83;70.58;101546.88;5076024;28;20169;-68
2021/12/07 07:08:31;;;;;;;16.03;11.33;;;;;;;-12.68;70.33;101552.91;5111683;28;20477;-67
2021/12/07 07:10:57;;;;;;;17.90;10.32;;;;;;;-12.68;69.37;101542.66;5111805;28;20040;-64
2021/12/07 07:13:25;;;;;;;12.30;9.33;;;;;;;-12.59;69.60;101551.19;5112090;28;20153;-67
2021/12/07 07:15:51;;;;;;;13.40;10.05;;;;;;;-12.42;69.22;101556.38;5094191;28;20031;-66
2021/12/07 07:18:17;;;;;;;19.27;9.27;;;;;;;-12.26;69.11;101550.38;5111181;28;20051;-65
2021/12/07 07:20:43;;;;;;;20.13;10.70;;;;;;;-12.24;68.53;101538.38;5111714;28;20043;-67
2021/12/07 07:23:08;;;;;;;17.00;10.97;;;;;;;-12.28;69.01;101549.50;5112689;28;20038;-67
2021/12/07 07:25:34;;;;;;;8.70;7.80;;;;;;;-12.45;68.35;101528.09;5095439;28;20164;-66
2021/12/07 07:28:00;;;;;;;13.90;9.13;;;;;;;-12.31;68.66;101543.53;5115767;28;20031;-68
2021/12/07 07:30:26;;;;;;;13.68;8.15;;;;;;;-12.34;67.60;101531.56;5097140;28;20118;-66
2021/12/07 07:32:54;;;;;;;13.20;7.88;;;;;;;-12.12;68.36;101546.94;5097549;28;20481;-68
2021/12/07 07:35:22;;;;;;;15.68;9.07;;;;;;;-12.07;67.91;101540.09;5080504;28;20382;-68
2021/12/07 07:37:49;;;;;;;17.00;9.98;;;;;;;-12.05;68.13;101526.41;5115777;28;20041;-67
2021/12/07 07:40:18;;;;;;;14.00;10.38;;;;;;;-12.07;68.02;101540.94;5115297;28;20036;-66
2021/12/07 07:42:45;;;;;;;18.30;9.60;;;;;;;-12.21;68.87;101528.09;5115850;28;20039;-71
2021/12/07 07:45:11;;;;;;;15.50;9.40;;;;;;;-12.13;68.99;101530.69;5116196;28;20065;-64
2021/12/07 07:47:38;;;;;;;14.07;9.07;;;;;;;-12.21;66.95;101528.09;5117248;28;20032;-66
2021/12/07 07:50:05;;;;;;;14.93;9.13;;;;;;;-12.32;68.14;101540.09;5117706;28;20062;-68
2021/12/07 07:52:33;;;;;;;15.00;9.30;;;;;;;-12.53;68.70;101510.16;5099929;28;20028;-74
2021/12/07 07:54:59;;;;;;;13.90;10.07;;;;;;;-12.36;68.40;101537.53;5115491;28;20406;-72
2021/12/07 07:57:24;;;;;;;10.70;8.87;;;;;;;-12.39;68.57;101523.00;5117183;28;20167;-72
2021/12/07 07:59:50;;;;;;;15.40;10.07;;;;;;;-12.28;68.93;101526.41;5117645;28;20028;-74
2021/12/07 08:02:16;;;;;;;12.23;9.07;;;;;;;-12.17;68.49;101543.50;5117629;28;20043;-73
2021/12/07 08:04:41;;;;;;;13.90;10.43;;;;;;;-12.28;68.05;101530.69;5116414;28;20036;-72
2021/12/07 08:07:07;;;;;;;21.20;10.87;;;;;;;-12.24;68.34;101533.25;5114856;28;20039;-67
2021/12/07 08:09:32;;;;;;;14.13;8.67;;;;;;;-12.25;68.00;101534.09;5096689;28;20043;-66
2021/12/07 08:11:58;;;;;;;16.23;9.00;;;;;;;-12.26;68.65;101524.69;5115533;28;20036;-67
2021/12/07 08:14:24;;;;;;;14.97;8.83;;;;;;;-12.26;68.98;101513.56;5097700;28;20490;-72
2021/12/07 08:16:49;;;;;;;16.87;9.57;;;;;;;-12.30;68.31;101497.31;5114983;28;20367;-71
2021/12/07 08:19:17;;;;;;;16.50;9.77;;;;;;;-12.26;68.55;101522.13;5115169;28;20091;-73
2021/12/07 08:21:48;;;;;;;13.95;9.48;;;;;;;-12.13;69.28;101524.69;5114601;28;20061;-68
2021/12/07 08:24:14;;;;;;;16.40;10.93;;;;;;;-11.98;68.27;101507.53;5114423;28;20031;-68
2021/12/07 08:26:40;;;;;;;15.63;9.50;;;;;;;-12.00;67.91;101516.09;5114424;28;20159;-63
2021/12/07 08:29:05;;;;;;;11.27;8.90;;;;;;;-11.97;68.64;101508.41;5114110;28;20059;-68
2021/12/07 08:31:31;;;;;;;22.17;12.77;;;;;;;-11.93;68.35;101490.41;5114206;28;20032;-68
2021/12/07 08:33:57;;;;;;;17.90;11.27;;;;;;;-11.71;68.01;101498.88;5096193;28;20091;-67
2021/12/07 08:36:22;;;;;;;21.03;11.70;;;;;;;-11.91;67.94;101495.53;5114614;28;20036;-69
2021/12/07 08:38:49;;;;;;;14.83;11.53;;;;;;;-11.95;68.67;101509.25;5114136;28;20039;-69
2021/12/07 08:41:15;;;;;;;19.30;11.73;;;;;;;-11.80;68.68;101510.94;5095770;28;20490;-71
2021/12/07 08:43:42;;;;;;;21.23;11.93;;;;;;;-11.76;67.75;101510.88;5114180;28;20054;-70
2021/12/07 08:46:10;;;;;;;17.30;11.68;;;;;;;-11.76;68.03;101510.03;5114013;28;20043;-69
2021/12/07 08:48:37;;;;;;;15.20;10.70;;;;;;;-12.37;68.28;101428.88;5113867;28;20047;-72
2021/12/07 08:51:05;;;;;;;18.43;11.50;;;;;;;-12.12;69.51;101480.19;5095431;28;20028;-65
2021/12/07 08:53:31;;;;;;;14.88;10.10;;;;;;;-11.91;68.71;101486.13;5113591;28;20467;-67
2021/12/07 09:01:29;;;;;;;16.35;10.35;;;;;;;-11.47;67.14;101494.53;5114023;28;20091;-66
2021/12/07 09:03:57;;;;;;;16.67;11.23;;;;;;;-11.49;66.89;101488.53;5095808;28;20039;-66
2021/12/07 09:06:23;;;;;;;18.55;10.65;;;;;;;-11.72;66.84;101452.63;5113590;28;20071;-65
2021/12/07 09:08:49;;;;;;;16.13;9.38;;;;;;;-11.47;67.14;101494.53;5113489;28;20035;-66
2021/12/07 09:11:16;;;;;;;21.27;11.20;;;;;;;-11.46;66.90;101485.94;5113346;28;20490;-68
2021/12/07 09:13:42;;;;;;;18.23;11.45;;;;;;;-11.67;67.65;101468.88;5113409;28;20111;-66
2021/12/07 09:16:10;;;;;;;17.23;11.25;;;;;;;-11.60;67.55;101491.97;5113504;28;20088;-66
2021/12/07 09:18:37;;;;;;;24.13;12.23;;;;;;;-11.67;68.29;101484.31;5113471;28;20051;-67
2021/12/07 09:21:04;;;;;;;27.85;13.52;;;;;;;-11.65;67.92;101482.59;5113355;28;20071;-67
2021/12/07 09:23:30;;;;;;;21.90;12.40;;;;;;;-11.67;67.99;101497.16;5113386;28;20027;-67
2021/12/07 09:25:56;;;;;;;22.10;14.43;;;;;;;-11.73;68.91;101495.47;5114201;28;20089;-70
2021/12/07 09:28:21;;;;;;;19.17;11.10;;;;;;;-11.58;68.54;101500.53;5114833;28;20031;-66
2021/12/07 09:30:51;;;;;;;19.90;13.60;;;;;;;-11.42;68.38;101506.47;5113835;28;20074;-69
2021/12/07 09:33:22;;;;;;;19.67;12.98;;;;;;;-11.38;67.27;101499.63;5113539;28;20039;-70
2021/12/07 09:35:48;;;;;;;21.75;11.77;;;;;;;-11.38;67.09;101491.91;5113269;28;20034;-67
2021/12/07 09:38:14;;;;;;;34.03;21.73;;;;;;;-11.33;67.38;101479.88;5112867;28;20042;-67
2021/12/07 09:40:42;;;;;;;28.38;16.50;;;;;;;-11.25;67.02;101473.00;5113574;28;20578;-75
2021/12/07 09:43:08;;;;;;;30.52;18.08;;;;;;;-11.21;66.65;101479.81;5113305;28;20064;-74
2021/12/07 09:45:35;;;;;;;29.33;14.25;;;;;;;-11.38;66.51;101435.34;5095262;28;20032;-72
2021/12/07 09:48:08;;;;;;;20.20;13.07;;;;;;;-11.08;66.57;101471.16;5113251;28;20592;-71
2021/12/07 09:50:38;;;;;;;22.02;12.52;;;;;;;-11.08;66.63;101472.88;5113479;28;20044;-62
2021/12/07 09:53:07;;;;;;;18.98;11.18;;;;;;;-11.18;66.66;101468.66;5113079;28;20087;-64
2021/12/07 09:55:33;;;;;;;26.17;13.93;;;;;;;-11.13;67.35;101467.78;5112982;28;20034;-67
2021/12/07 09:57:59;;;;;;;23.80;14.23;;;;;;;-11.11;66.84;101468.63;5094628;28;20038;-68
2021/12/07 10:00:26;;;;;;;27.33;13.70;;;;;;;-11.08;66.81;101480.59;5094765;28;20031;-72
2021/12/07 10:02:53;;;;;;;25.05;16.80;;;;;;;-11.16;67.31;101472.94;5112524;28;20032;-63
2021/12/07 10:05:21;;;;;;;24.60;12.98;;;;;;;-11.12;67.22;101464.34;5112617;28;20039;-66
2021/12/07 10:07:48;;;;;;;22.48;13.55;;;;;;;-11.17;67.24;101455.81;5112830;28;20031;-65
2021/12/07 10:10:21;;;;;;;25.08;14.82;;;;;;;-11.16;66.56;101459.22;5094626;28;20362;-65
2021/12/07 10:12:47;;;;;;;22.85;13.25;;;;;;;-11.17;67.04;101466.09;5112494;28;20371;-65
2021/12/07 10:15:13;;;;;;;22.57;14.27;;;;;;;-11.42;67.27;101424.22;5094139;28;20034;-69
2021/12/07 10:17:42;;;;;;;19.50;11.93;;;;;;;-11.13;66.90;101462.63;5111865;28;20578;-66
2021/12/07 10:20:31;;;;;;;18.33;13.83;;;;;;;-11.13;66.48;101449.78;5072291;28;20052;-69
2021/12/07 10:23:04;;;;;;;19.70;12.80;;;;;;;-11.54;66.21;101367.75;5072354;28;20032;-69
2021/12/07 10:25:30;;;;;;;26.13;13.35;;;;;;;-10.92;65.82;101461.66;5071285;28;20495;-67
2021/12/07 10:27:57;;;;;;;22.80;14.90;;;;;;;-10.90;65.97;101453.91;5071566;28;20082;-67
2021/12/07 10:30:24;;;;;;;26.70;13.82;;;;;;;-10.90;65.24;101443.63;5068888;28;20043;-68
2021/12/07 10:33:01;;;;;;;22.48;11.40;;;;;;;-10.87;65.67;101451.31;5071358;28;20511;-66
2021/12/07 10:35:29;;;;;;;23.08;12.60;;;;;;;-10.91;65.70;101434.19;5066578;28;20192;-64
2021/12/07 10:38:16;;;;;;;21.02;11.15;;;;;;;-10.82;65.38;101441.84;5071318;28;20484;-69
2021/12/07 10:40:58;;;;;;;21.58;11.73;;;;;;;-10.86;65.23;101437.59;5070300;28;20032;-65
2021/12/07 10:43:52;;;;;;;20.45;10.82;;;;;;;-10.85;65.21;101442.72;5072790;28;20028;-69
2021/12/07 10:46:43;;;;;;;24.20;11.13;;;;;;;-10.85;65.46;101445.28;5088428;28;20032;-70
2021/12/07 10:49:21;;;;;;;19.52;11.80;;;;;;;-10.91;65.05;101429.06;5073909;28;20510;-65
2021/12/07 10:52:08;;;;;;;23.42;12.35;;;;;;;-10.96;64.95;101432.53;5074477;28;20131;-76
2021/12/07 10:54:40;;;;;;;18.30;11.25;;;;;;;-10.97;65.87;101438.53;5072345;28;20491;-69
2021/12/07 10:57:10;;;;;;;19.08;13.02;;;;;;;-11.13;65.69;101436.06;5072438;28;20459;-68
2021/12/07 10:59:37;;;;;;;14.15;11.27;;;;;;;-11.39;66.33;101419.06;5072480;28;20075;-72
2021/12/07 11:02:16;;;;;;;20.67;12.02;;;;;;;-11.81;65.96;101373.09;5075903;28;20044;-67
2021/12/07 11:04:43;;;;;;;17.87;12.77;;;;;;;-11.50;67.61;101435.41;5075177;28;20036;-69
2021/12/07 11:07:19;;;;;;;16.02;11.77;;;;;;;-11.48;67.17;101443.97;5075314;28;20666;-66
2021/12/07 11:10:14;;;;;;;24.50;14.25;;;;;;;-11.52;67.19;101439.72;5075243;28;20028;-71
2021/12/07 11:13:34;;;;;;;31.25;18.33;;;;;;;-11.63;67.66;101435.47;5075227;28;20048;-69
2021/12/07 11:15:54;;;;;;;80.22;33.60;;;;;;;-11.71;66.89;101436.34;5066242;28;20045;-66
2021/12/07 11:18:31;;;;;;;32.47;16.20;;;;;;;-11.72;67.66;101427.81;5079785;28;20167;-66
2021/12/07 11:21:06;;;;;;;28.05;16.10;;;;;;;-11.72;67.58;101439.78;5095900;28;20452;-67
2021/12/07 11:23:41;;;;;;;27.90;14.48;;;;;;;-11.89;68.13;101419.31;5096270;28;20463;-66
2021/12/07 11:31:31;;;;;;;31.85;17.67;;;;;;;-11.79;67.93;101438.16;5096821;28;20044;-67
2021/12/07 11:34:15;;;;;;;28.58;15.13;;;;;;;-11.82;67.93;101439.03;5096735;28;20085;-66
2021/12/07 11:37:02;;;;;;;23.05;13.63;;;;;;;-11.91;68.09;101434.75;5096198;28;20047;-66
2021/12/07 11:39:35;;;;;;;26.92;14.88;;;;;;;-11.85;68.60;101440.72;5096130;28;20044;-66
2021/12/07 11:42:05;;;;;;;21.67;13.65;;;;;;;-11.91;68.97;101439.88;5095159;28;20051;-67
2021/12/07 11:44:34;;;;;;;27.75;14.32;;;;;;;-12.17;68.63;101410.00;5094847;28;20491;-66
2021/12/07 11:47:01;;;;;;;27.92;17.42;;;;;;;-12.13;69.17;101432.28;5095252;28;20567;-68
2021/12/07 11:49:29;;;;;;;24.35;13.73;;;;;;;-12.08;69.89;101435.66;5094982;28;20383;-64
2021/12/07 11:52:20;;;;;;;28.00;14.80;;;;;;;-12.20;69.76;101431.41;5094180;28;20571;-69
2021/12/07 11:54:46;;;;;;;30.98;17.70;;;;;;;-12.16;69.42;101437.38;5094896;28;20131;-65
2021/12/07 11:57:14;;;;;;;19.03;12.93;;;;;;;-12.30;69.60;101425.44;5095174;28;20028;-66
2021/12/07 11:59:41;;;;;;;22.63;14.60;;;;;;;-12.27;69.74;101424.59;5093444;28;20047;-66
2021/12/07 12:02:07;;;;;;;24.48;14.57;;;;;;;-12.20;70.20;101446.81;5094293;28;20411;-72
2021/12/07 12:04:33;;;;;;;35.73;16.80;;;;;;;-12.24;69.88;101445.97;5093050;28;20028;-69
2021/12/07 12:07:00;;;;;;;27.25;13.95;;;;;;;-12.34;70.59;101446.84;5076356;28;20039;-70
2021/12/07 12:09:28;;;;;;;20.05;12.65;;;;;;;-12.49;70.55;101428.88;5094001;28;20039;-70
2021/12/07 12:12:02;;;;;;;22.80;13.88;;;;;;;-12.33;70.48;101447.69;5093440;28;20044;-70
2021/12/07 12:14:48;;;;;;;23.63;14.75;;;;;;;-12.52;70.60;101419.47;5093941;28;20111;-69
2021/12/07 12:17:14;;;;;;;20.67;12.55;;;;;;;-12.50;71.07;101422.03;5094015;28;20036;-64
2021/12/07 12:19:49;;;;;;;24.67;15.83;;;;;;;-12.29;70.75;101451.97;5111141;28;20059;-70
2021/12/07 12:22:26;;;;;;;25.98;15.75;;;;;;;-12.39;70.95;101448.56;5114328;28;20057;-71
2021/12/07 12:24:53;;;;;;;22.45;14.73;;;;;;;-12.47;71.10;101441.72;5114281;28;20478;-66
2021/12/07 12:27:33;;;;;;;22.63;13.48;;;;;;;-12.43;71.12;101449.44;5096096;28;20046;-68
2021/12/07 12:30:17;;;;;;;22.15;14.15;;;;;;;-12.57;71.90;101441.72;5114488;28;20034;-68
2021/12/07 12:32:45;;;;;;;19.67;11.95;;;;;;;-12.55;71.29;101427.19;5114249;28;20039;-67
2021/12/07 12:35:13;;;;;;;18.13;11.98;;;;;;;-12.52;71.75;101446.84;5114352;28;20050;-74
2021/12/07 12:37:45;;;;;;;19.45;13.80;;;;;;;-12.64;71.35;101426.34;5114154;28;20043;-70
2021/12/07 12:40:21;;;;;;;21.55;12.57;;;;;;;-12.60;71.54;101441.72;5114263;28;20085;-67
2021/12/07 12:42:51;;;;;;;15.68;11.23;;;;;;;-12.67;71.31;101445.16;5114390;28;20035;-70
2021/12/07 12:45:34;;;;;;;19.85;12.48;;;;;;;-12.79;72.11;101428.91;5114471;28;20128;-65
2021/12/07 12:48:06;;;;;;;17.38;11.50;;;;;;;-12.77;72.49;101442.56;5114373;28;20032;-72
2021/12/07 12:50:31;;;;;;;21.15;12.32;;;;;;;-12.77;72.77;101457.97;5095698;28;20039;-71
2021/12/07 12:53:02;;;;;;;14.60;10.53;;;;;;;-12.93;72.58;101429.78;5113510;28;20402;-68